»·PEaware :: N357EJ KDLS-KMMV

N357EJ :: KDLS-KMMV

FLIGHT INFORMATION

Flight Status: Arrived
Operator: Privately registered:
United States
More flights under this callsign
Pilot: Eric M. (23425)
Aircraft: BEECH AIRCRAFT BARON
(BE58)
More flights by this aircraft type
Origin: KDLS Columbia Gorge Regl/The Dalle
United States
Destination: KMMV McMinnville Mun
United States
More flights between these airports :: More routes between these airports
Route: DALLS1 LTJ V112 BTG V287 UBG
File this flight plan on PilotEdge
Remarks:
Altitude:
(Current/Filed)
8,000ft
Speed:
(Current/Filed)
180kts
Departed: 07-Jan-20 10:10 AM
Arrived: 07-Jan-20 11:05 AM
Distance/Time
Traveled:
87nm/0:55
Distance/Time
To Go:
Arrived

Flight Plot

Page will automatically refresh every two minutes.

Flight plan parsing failed; only flown route is shown


Map Options




Map Legend


Flown Route
Filed Route
Departure Airport
Arrival Airport
Navaid (VOR, NDB)
Fix

Horizontal Profiles

Position Reports

Time Latitude Longitude Heading Altitude Ground
Speed
07-Jan-20 09:56 45.618278 -121.171414 331 251ft 0kts
07-Jan-20 09:57 45.619329 -121.173828 266 251ft 12kts
07-Jan-20 09:58 45.619173 -121.174832 278 251ft 0kts
07-Jan-20 09:59 45.619173 -121.174832 278 251ft 0kts
07-Jan-20 10:00 45.619173 -121.174832 278 251ft 0kts
07-Jan-20 10:01 45.619173 -121.174832 278 251ft 0kts
07-Jan-20 10:02 45.619173 -121.174832 278 251ft 0kts
07-Jan-20 10:03 45.619173 -121.174832 278 251ft 0kts
07-Jan-20 10:04 45.619173 -121.174832 278 251ft 0kts
07-Jan-20 10:05 45.619173 -121.174832 278 251ft 0kts
07-Jan-20 10:06 45.619173 -121.174832 278 251ft 0kts
07-Jan-20 10:07 45.619173 -121.174832 278 251ft 0kts
07-Jan-20 10:08 45.620669 -121.177774 356 251ft 10kts
07-Jan-20 10:09 45.621703 -121.151934 92 884ft 118kts
07-Jan-20 10:10 45.595734 -121.112650 135 2500ft 140kts
07-Jan-20 10:11 45.556120 -121.096967 176 3768ft 164kts
07-Jan-20 10:12 45.551185 -121.059670 354 4724ft 155kts
07-Jan-20 10:13 45.590348 -121.066427 345 6230ft 137kts
07-Jan-20 10:14 45.629753 -121.081953 341 7270ft 146kts
07-Jan-20 10:15 45.672791 -121.092814 344 7987ft 159kts
07-Jan-20 10:16 45.709915 -121.122241 282 8132ft 152kts
07-Jan-20 10:17 45.715412 -121.186100 274 8005ft 159kts
07-Jan-20 10:18 45.717789 -121.249915 273 7987ft 159kts
07-Jan-20 10:19 45.719655 -121.313660 272 7984ft 159kts
07-Jan-20 10:20 45.721424 -121.377838 272 7983ft 159kts
07-Jan-20 10:21 45.723136 -121.441709 272 7983ft 159kts
07-Jan-20 10:22 45.724816 -121.505765 272 7982ft 159kts
07-Jan-20 10:23 45.726455 -121.569687 272 7982ft 159kts
07-Jan-20 10:24 45.728053 -121.633348 272 7982ft 159kts
07-Jan-20 10:25 45.729585 -121.695268 271 7988ft 159kts
07-Jan-20 10:26 45.731009 -121.752509 269 7983ft 159kts
07-Jan-20 10:27 45.732247 -121.804521 267 7980ft 160kts
07-Jan-20 10:28 45.733338 -121.851853 266 7983ft 161kts
07-Jan-20 10:29 45.734440 -121.899918 264 7978ft 163kts
07-Jan-20 10:30 45.735606 -121.952551 264 7976ft 166kts
07-Jan-20 10:31 45.736942 -122.015134 264 7975ft 167kts
07-Jan-20 10:32 45.738227 -122.075691 264 7982ft 166kts
07-Jan-20 10:33 45.739441 -122.134353 264 7981ft 166kts
07-Jan-20 10:34 45.740617 -122.192840 264 8029ft 166kts
07-Jan-20 10:35 45.741893 -122.258736 264 8033ft 166kts
07-Jan-20 10:36 45.743210 -122.327421 264 8032ft 166kts
07-Jan-20 10:37 45.744133 -122.377645 263 8021ft 167kts
07-Jan-20 10:38 45.744904 -122.420977 264 8007ft 167kts
07-Jan-20 10:39 45.745572 -122.458671 264 8015ft 166kts
07-Jan-20 10:40 45.746383 -122.505079 263 8001ft 168kts
07-Jan-20 10:41 45.747190 -122.553888 263 8010ft 167kts
07-Jan-20 10:42 45.736861 -122.591480 203 7735ft 144kts
07-Jan-20 10:43 45.713439 -122.610802 210 7327ft 143kts
07-Jan-20 10:44 45.690120 -122.627245 201 6814ft 153kts
07-Jan-20 10:45 45.666900 -122.645349 206 6438ft 148kts
07-Jan-20 10:46 45.641959 -122.660371 200 6021ft 147kts
07-Jan-20 10:47 45.618797 -122.676739 211 5498ft 151kts
07-Jan-20 10:48 45.596452 -122.693710 200 4961ft 151kts
07-Jan-20 10:49 45.571926 -122.709433 206 4302ft 157kts
07-Jan-20 10:50 45.540468 -122.733428 203 3716ft 152kts
07-Jan-20 10:51 45.500428 -122.760690 201 3269ft 141kts
07-Jan-20 10:52 45.462250 -122.787881 208 3108ft 132kts
07-Jan-20 10:53 45.429160 -122.811655 199 3287ft 123kts
07-Jan-20 10:54 45.393426 -122.839977 206 3002ft 139kts
07-Jan-20 10:55 45.359507 -122.860055 199 2880ft 109kts
07-Jan-20 10:56 45.329227 -122.878383 205 3025ft 99kts
07-Jan-20 10:57 45.301970 -122.902457 234 2681ft 109kts
07-Jan-20 10:58 45.286493 -122.941162 228 2464ft 99kts
07-Jan-20 10:59 45.269688 -122.978782 227 2315ft 97kts
07-Jan-20 11:00 45.250066 -123.020940 227 2111ft 99kts
07-Jan-20 11:01 45.231701 -123.063094 234 1891ft 81kts
07-Jan-20 11:02 45.215367 -123.097778 225 872ft 80kts
07-Jan-20 11:03 45.197976 -123.134878 229 170ft 66kts
07-Jan-20 11:04 45.195893 -123.141946 54 167ft 18kts
07-Jan-20 11:05 45.198084 -123.139456 131 167ft 0kts

Navigation Log

Ident Type
Flight plan parsing failed, navigation log unavailable